Persoonlijke zone
Imprimable
Challenges > Delhalle - Amay, 16/09/2018, BEL - Le Semi-Vert d'Amay
Rapportenlijst > 11.4km - Resultaat
Zoek: Bladzijde: [1]
69 Inputs
 
Klachten worden niet meer geaccepteerd. Resultaten zijn definitief.
Categorie
PosNrNaamLeef.IOCLigaClubWerkelijkeTijdTkmGem.PlaatsNaamScrPtsGemeente
1.9579KEVELAER BÉATRICE46BELCLAPTEAM SOMJA56:0256:054:56 12.201ai127ROCOURT
2.9353CANAVESE SYLVIE31BEL56:5957:095:01 11.971dam30SERAING
3.9326JENNEN VICTORIA18BEL58:1958:245:08 11.711esf34BONCELLES
4.9563VIGNERON SABINE55BELRCNRCNAMUR1:00:291:00:385:20 11.281ai245JAMBES
5.9375PAPS CÉCILE42BELRFCL1:00:321:00:505:21 11.252ai146GRÂCE-HOLLOGNE
6.9569MATAGNE ANNE44BEL1:00:541:01:025:22 11.213ai149VERLAINE
7.9355VAST VERONIQUE40BEL1:03:221:03:365:35 10.764ai162GEMBLOUX
8.9338KHALEEFEH NORA39BEL1:03:561:04:005:37 10.692dam65POUSSET
9.8726MICHEL NEDEGE33BEL1:03:441:04:145:39 10.653dam67
10.9610SMET BARBARA43BELGORUNNIN’GREZ1:06:001:06:225:50 10.315ai183
11.8766BOSSELOIR ANNICK49BEL1:06:081:06:295:50 10.296ai185GRIVEGNÉE
12.8764LECART SANDRA45BEL1:07:031:07:285:56 10.147ai189
13.8736MERTENS CAROLINE34BELCJPL1:07:371:07:515:58 10.084dam94LIEGE
14.9316BAEKE AURELIE36BEL1:07:401:07:535:58 10.085dam95BAS-OHA
15.9591DETRY AURÉLIE42BELLES FRELONS1:07:291:08:075:59 10.048ai1100AMPSIN
16.8763VALEPIN KATHLEEN46BEL1:08:021:08:146:00 10.039ai1101GEMBLOUX
17.9577LAPAGNE FRANÇOISE55BELR.C. NAMUR1:07:581:08:226:00 10.012ai2103NAMUR
18.9576COURTIN JACQUELINE54BEL1:08:081:08:246:00 10.003ai2104GRACE HOLLOGNE
19.8745COP AURELIE33BEL1:08:461:09:026:04 9.916dam107
20.8752VANDEN BROECK ANITA49BEL1:09:451:10:186:10 9.7310ai1110
21.6144DEPIENNE VÉRONIQUE48BELGORUNNIN’GREZ1:10:231:10:376:12 9.6911ai1113
22.9635DE BEUL NATALIE48BELGORUNNIN’GREZ1:10:341:10:576:14 9.6412ai1117
23.9319HANOTEAU ISABELLE46BEL1:10:581:10:586:14 9.6413ai1118
24.9604WATTIEZ RAPHAELLE55BELRC NAMUR/OCAN1:12:341:13:026:25 9.374ai2122ANDENNE
25.8758APPELTANS HÉLÈNE43BELALDES1:12:591:13:416:28 9.2814ai1124VILLERS LE TEMPLE
26.9315LAURENT MARIE35BEL1:13:461:14:056:30 9.237dam127ESTINNES AU MONT
27.8755MOSSIAT STEPHY26BEL1:13:271:14:086:31 9.238dam128
28.9347LISIK NATHALIE50BELRFCL ROAD RUNNERS1:16:331:16:446:44 8.915ai2135REMICOURT
29.9580KABWE JEANNE52BELPUMPKIN RUNNING TEAM1:16:351:16:456:44 8.916ai2136LIÈGE
30.9568MATAGNE MARIE41BEL1:17:041:17:146:47 8.8615ai1140ESNEUX
31.9618LIBERT FRANÇOISE55BELGORUNNIN’GREZ1:16:361:17:216:48 8.847ai2142
32.9622HEMMERYCK JULIE38BELGORUNNIN’GREZ1:17:511:18:146:52 8.749dam144
33.9619LETOR DELPHINE44BELGORUNNIN’GREZ1:17:511:18:146:52 8.7416ai1145
34.8732SHAL CHRISTELLE72BEL1:17:371:18:216:53 8.731ai4146
35.8713DI NOTTE VIRGINIE40BEL1:18:301:18:386:54 8.7017ai1147W
36.9593BOUCHAT ANNE54BELOMEGA/MJ SPORT1:18:281:18:396:54 8.708ai2148BAS OHA
37.9607VANBEVER LISE40BELGORUNNIN’GREZ1:18:421:19:266:59 8.6118ai1153
38.9613PECHEUR MURIELLE54BELGORUNNIN’GREZ1:19:101:19:577:01 8.569ai2155
39.9606VANDER LINDEN VÉRONIQUE53BELGORUNNIN’GREZ1:19:251:19:577:01 8.5610ai2156
40.9634DE ROP MICHÈLE57BELGORUNNIN’GREZ1:19:381:20:247:04 8.5111ai2158
41.9632DELBROUCK CATHERINE56BELGORUNNIN’GREZ1:19:461:20:317:04 8.5012ai2159
42.9628FREDERIC NATHALIE46BEL1:19:541:20:387:05 8.4819ai1160GREZ-DOICEAU
43.9342PONCELET FIORINE17BEL1:20:301:20:457:05 8.472esf161
44.9572BERGER SÉVERINE40BEL1:20:391:20:467:06 8.4720ai1162BEAUFAYS
45.9639CALLENS VALÉRIE48BELGORUNNIN’GREZ1:20:311:21:187:08 8.4121ai1168
46.9581PIRONNET SANDRINE42BELRUNASTOCK1:21:171:21:387:10 8.3822ai1170STOCKAY
47.8775OMAZIC ANNE-FRANCOISE40BELRFCL RUN LOISIR1:21:171:21:577:12 8.3523ai1171LIEGE
48.8733SMAL CATHERINE42BEL1:21:151:21:597:12 8.3424ai1172
49.8743ROWZIALLO MICHELLA46ITA1:21:291:22:097:13 8.3325ai1173
50.9323LONGRÉE DELPHINE36BEL1:21:291:22:107:13 8.3310dam174
51.9365DOSSIN CECILE40BEL1:21:531:22:377:15 8.2826ai1175OMBRET
52.8754SAVONA ROSALIA36BEL1:22:041:22:457:16 8.2711dam176
53.9366LARCHAND KATHY41BELFRELON1:22:021:22:467:16 8.2727ai1177
54.8735STREEL ISABELLE48BEL1:22:361:23:267:20 8.2028ai1179LIEGE
55.9344MOSCA ANNE-MARIE43BELSERUNNERS1:24:251:24:437:26 8.0729ai1180
56.8760GAUBE ADELAIDE39BEL1:25:011:25:437:32 7.9812dam182
57.9631DEWEVRE MORGANE29BELGORUNNIN’GREZ1:25:211:25:577:33 7.9613dam183
58.9337GAVA RENATA40BEL1:25:461:26:277:35 7.9130ai1186AMAY
59.9598DEVILLE MÉLANIE32BEL1:26:491:27:247:40 7.8314dam187AMAY
60.9587PHILIPKIN FRANCINE63BELRUN ESSENCE1:27:261:27:587:43 7.781ai3189HERMALLE-SOUS-HUY
61.9602WALRAVENS LAURENCE47BELGORUNNIN’GREZ1:30:031:30:367:57 7.5531ai1190
62.9616MOUREAUX SYLVIE49BELGORUNNIN’GREZ1:30:031:30:367:57 7.5532ai1191
63.9608VAN BINST WIVINE60BELGORUNNIN’GREZ1:29:511:30:367:57 7.552ai3192
64.9346THYS GENEVIEVE54BELSERRUNNERS1:33:061:33:258:12 7.3213ai2193
65.9640BATAILLE MORGANE26BELGORUNNIN’GREZ1:33:051:33:338:13 7.3115dam194
66.9625FRIX JACQUELINE58BELGORUNNIN’GREZ1:33:501:34:248:17 7.2514ai2195
67.9605VERHEYE FABIENNE57BELGORUNNIN’GREZ1:33:481:34:248:17 7.2515ai2197
68.8731MAREE NADINE48BEL1:36:511:37:348:34 7.0133ai1199MARCHIN
69.8729DOPHONE HANETTE54BEL1:36:511:37:348:34 7.0116ai2200
DNF: abandon; DSQ: disqualifié; Vitesse en km/h
Bladzijde: [1]